Jordan, MT (59337)

9:52 AM MST on November 24, 2017 (GMT -0700)
Wokal-Glasgow International | | Change Station
Active Advisory: Lake Wind Advisory Active Notice: Public Information Statement

Elev 2293 ft 48.21 °N, 106.61 °W | Updated 59 minutes ago

Clear
Clear
37 °F
Feels Like 30 °F
N
10
Wind Variable Wind from SW

Today
High -- | Low -- °F
--% Chance of Precip.
Yesterday
High -- | Low -- °F
Precip. -- in
Pressure 29.78 in
Visibility 10.0 miles
Clouds Clear
Windchill 30 °F
Dew Point 35 °F
Humidity 93%
Rainfall 0.00 in
Snow Depth Not available.
7:25 AM 4:23 PM
Waxing Crescent, 31% visible
METAR KGGW 241553Z AUTO 22009KT 10SM CLR 03/02 A2976 RMK AO2 SLP084 T00280017
Pressure 29.78 in
Visibility 10.0 miles
Clouds Clear
Windchill 30 °F
Dew Point 35 °F
Humidity 93%
Rainfall 0.00 in
Snow Depth Not available.
7:25 AM 4:23 PM
Waxing Crescent, 31% visible
METAR KGGW 241553Z AUTO 22009KT 10SM CLR 03/02 A2976 RMK AO2 SLP084 T00280017

Get Your Daily Forecast Email!

Thanks for signing up!

Be on the lookout for a verification email in your inbox.

You'll start receiving severe weather alerts in your inbox..

×

10-Day Weather Forecast

Almanac

Astronomy

Nov. 24, 2017 Rise Set
Actual Time
Civil Twilight
Nautical Twilight
Astronomical Twilight
Moon
Length of Visible Light
Length of Day
Tomorrow will be .
, % of the Moon is Illuminated

Today's Extremes

State Highs State Lows

Community

WunderPhotos

Category 6

Welcome to Category 6. This is the collective home for Weather Underground's featured writeups by Dr. Jeff Masters (right), Bob Henson (left), Chris Burt, and other regular contributors.

Nearby

Air Quality

  Air Quality AQ Index Pollutant
Not available.

Snow Depth

Station Depth Elevation

Earthquake Activity

City Distance Mag. Time & Date
Minimum magnitude displayed is 2.5.

Coastal Water Temperatures

Place Temperature

Stations

Nearby Weather Stations

Station Location Temp. Windchill Dew Point Humidity Wind Precip. Elev Updated Type
                   

Watches & Warnings

Lake Wind Advisory
Issued: 3:09 AM MST Nov. 24, 2017 – National Weather Service

... Lake Wind Advisory remains in effect until 6 PM MST this
evening for Fort Peck Lake...

* winds... west 15 to 25 mph with gusts up to 40 mph.

* Timing... until this evening.

* Impacts... these winds will make open waters of the lake rough
and hazardous, and may result in high waves which could tip or
swamp smaller craft.

Precautionary/preparedness actions...

Boaters should use extreme caution if venturing onto Fort Peck
Lake. For your personal safety, avoid the open waters. Stay close
to shore or around protected areas.